VOI7849 KLAX-MMOX
Flight info
| Callsign | VOI7849 |
|---|---|
| Flight time | 3h 35m |
| Altitude | 37000 |
| Route | PNDAH2 OTAYY DCT TIJ UT18 GOLFO UQ103 NABAS UT49 DGO UJ5 QET UT150 DARAN DCT TEVOS UT113 OAX |
| Aircraft | A20N/M-SDE2E3FGHIRWXY/S |
Departure
| Time | 2026-05-04 21:17 |
|---|---|
| Airport | Los Angeles International Airport (KLAX) |
Arrival
| Time | 2026-05-05 00:53 |
|---|---|
| Airport | Xoxocotlán International Airport (MMOX) |
| Time | Latitude | Longitude | Altitude | Speed | Heading |
|---|---|---|---|---|---|
| 2026-05-04 20:44 | 33.94204 | -118.39782 | 115 ft | 0 kts | 84° |
| 2026-05-04 21:06 | 33.94202 | -118.39798 | 116 ft | 2 kts | 83° |
| 2026-05-04 21:06 | 33.94201 | -118.39816 | 116 ft | 2 kts | 98° |
| 2026-05-04 21:06 | 33.94206 | -118.39833 | 116 ft | 2 kts | 126° |
| 2026-05-04 21:07 | 33.94217 | -118.39845 | 116 ft | 2 kts | 152° |
| 2026-05-04 21:07 | 33.94227 | -118.39850 | 116 ft | 0 kts | 171° |
| 2026-05-04 21:07 | 33.94235 | -118.39851 | 116 ft | 0 kts | 175° |
| 2026-05-04 21:11 | 33.94207 | -118.39848 | 116 ft | 8 kts | 175° |
| 2026-05-04 21:12 | 33.94142 | -118.39840 | 116 ft | 10 kts | 174° |
| 2026-05-04 21:12 | 33.94069 | -118.39833 | 116 ft | 10 kts | 179° |
| 2026-05-04 21:12 | 33.93993 | -118.39825 | 116 ft | 11 kts | 168° |
| 2026-05-04 21:12 | 33.93921 | -118.39784 | 115 ft | 11 kts | 128° |
| 2026-05-04 21:13 | 33.93912 | -118.39688 | 114 ft | 12 kts | 85° |
| 2026-05-04 21:13 | 33.93923 | -118.39572 | 112 ft | 14 kts | 83° |
| 2026-05-04 21:13 | 33.93936 | -118.39443 | 111 ft | 16 kts | 85° |
| 2026-05-04 21:13 | 33.93950 | -118.39302 | 109 ft | 17 kts | 80° |
| 2026-05-04 21:14 | 33.93967 | -118.39158 | 108 ft | 18 kts | 83° |
| 2026-05-04 21:14 | 33.93980 | -118.39006 | 107 ft | 18 kts | 84° |
| 2026-05-04 21:14 | 33.93997 | -118.38854 | 106 ft | 11 kts | 82° |
| 2026-05-04 21:14 | 33.93998 | -118.38841 | 106 ft | 0 kts | 82° |
| 2026-05-04 21:15 | 33.94002 | -118.38808 | 106 ft | 8 kts | 82° |
| 2026-05-04 21:15 | 33.94010 | -118.38731 | 106 ft | 10 kts | 84° |
| 2026-05-04 21:15 | 33.94019 | -118.38633 | 105 ft | 12 kts | 84° |
| 2026-05-04 21:15 | 33.94031 | -118.38520 | 105 ft | 14 kts | 82° |
| 2026-05-04 21:16 | 33.94044 | -118.38399 | 104 ft | 11 kts | 87° |
| 2026-05-04 21:16 | 33.94002 | -118.38330 | 104 ft | 10 kts | 167° |
| 2026-05-04 21:16 | 33.93948 | -118.38376 | 104 ft | 10 kts | 255° |
| 2026-05-04 21:16 | 33.93931 | -118.38542 | 105 ft | 47 kts | 263° |
| 2026-05-04 21:17 | 33.93861 | -118.39225 | 109 ft | 114 kts | 263° |
| 2026-05-04 21:17 | 33.93739 | -118.40382 | 140 ft | 164 kts | 262° |
| 2026-05-04 21:17 | 33.93586 | -118.41779 | 648 ft | 170 kts | 262° |
| 2026-05-04 21:17 | 33.93425 | -118.43224 | 1217 ft | 180 kts | 261° |
| 2026-05-04 21:18 | 33.93258 | -118.44729 | 1905 ft | 183 kts | 261° |
| 2026-05-04 21:18 | 33.92879 | -118.46214 | 2408 ft | 194 kts | 240° |
| 2026-05-04 21:18 | 33.92074 | -118.47598 | 2758 ft | 216 kts | 232° |
| 2026-05-04 21:18 | 33.91102 | -118.49065 | 3236 ft | 233 kts | 231° |
| 2026-05-04 21:19 | 33.90021 | -118.50616 | 3732 ft | 251 kts | 230° |
| 2026-05-04 21:19 | 33.88849 | -118.52262 | 4328 ft | 262 kts | 230° |
| 2026-05-04 21:19 | 33.87671 | -118.53924 | 4759 ft | 264 kts | 230° |
| 2026-05-04 21:19 | 33.86331 | -118.55428 | 4897 ft | 266 kts | 209° |
| 2026-05-04 21:20 | 33.84525 | -118.56010 | 5186 ft | 275 kts | 180° |
| 2026-05-04 21:20 | 33.82655 | -118.55627 | 6068 ft | 274 kts | 168° |
| 2026-05-04 21:20 | 33.80825 | -118.55097 | 6992 ft | 271 kts | 169° |
| 2026-05-04 21:20 | 33.78990 | -118.54591 | 7788 ft | 273 kts | 169° |
| 2026-05-04 21:21 | 33.77130 | -118.54085 | 8512 ft | 277 kts | 169° |
| 2026-05-04 21:21 | 33.75262 | -118.53581 | 9252 ft | 279 kts | 170° |
| 2026-05-04 21:21 | 33.73354 | -118.53062 | 10030 ft | 279 kts | 170° |
| 2026-05-04 21:21 | 33.71462 | -118.52522 | 10568 ft | 290 kts | 165° |
| 2026-05-04 21:22 | 33.69650 | -118.51269 | 10854 ft | 315 kts | 140° |
| 2026-05-04 21:22 | 33.68314 | -118.49073 | 11141 ft | 338 kts | 121° |
| 2026-05-04 21:22 | 33.67238 | -118.46503 | 11489 ft | 352 kts | 120° |
| 2026-05-04 21:22 | 33.66128 | -118.43857 | 12044 ft | 359 kts | 120° |
| 2026-05-04 21:23 | 33.64997 | -118.41180 | 12679 ft | 362 kts | 121° |
| 2026-05-04 21:23 | 33.63856 | -118.38500 | 13323 ft | 365 kts | 121° |
| 2026-05-04 21:23 | 33.62682 | -118.35756 | 13904 ft | 369 kts | 121° |
| 2026-05-04 21:23 | 33.61500 | -118.33003 | 14393 ft | 376 kts | 122° |
| 2026-05-04 21:24 | 33.60305 | -118.30228 | 14887 ft | 382 kts | 122° |
| 2026-05-04 21:24 | 33.59078 | -118.27382 | 15352 ft | 388 kts | 123° |
| 2026-05-04 21:24 | 33.57822 | -118.24474 | 15787 ft | 395 kts | 123° |
| 2026-05-04 21:24 | 33.56545 | -118.21526 | 16280 ft | 400 kts | 123° |
| 2026-05-04 21:25 | 33.55254 | -118.18545 | 16723 ft | 406 kts | 124° |
| 2026-05-04 21:25 | 33.53950 | -118.15535 | 17165 ft | 412 kts | 123° |
| 2026-05-04 21:25 | 33.52624 | -118.12459 | 17608 ft | 417 kts | 124° |
| 2026-05-04 21:25 | 33.51290 | -118.09351 | 18009 ft | 423 kts | 124° |
| 2026-05-04 21:26 | 33.49942 | -118.06233 | 18412 ft | 429 kts | 124° |
| 2026-05-04 21:26 | 33.48555 | -118.03014 | 18854 ft | 433 kts | 124° |
| 2026-05-04 21:26 | 33.47009 | -117.99971 | 19332 ft | 429 kts | 133° |
| 2026-05-04 21:26 | 33.45118 | -117.97228 | 19846 ft | 422 kts | 142° |
| 2026-05-04 21:27 | 33.42989 | -117.94831 | 20296 ft | 421 kts | 147° |
| 2026-05-04 21:27 | 33.40802 | -117.92540 | 20725 ft | 424 kts | 148° |
| 2026-05-04 21:27 | 33.38546 | -117.90192 | 21168 ft | 428 kts | 148° |
| 2026-05-04 21:27 | 33.36314 | -117.87862 | 21618 ft | 431 kts | 147° |
| 2026-05-04 21:28 | 33.34050 | -117.85480 | 22067 ft | 434 kts | 148° |
| 2026-05-04 21:28 | 33.31779 | -117.83081 | 22562 ft | 436 kts | 147° |
| 2026-05-04 21:28 | 33.29506 | -117.80682 | 22975 ft | 439 kts | 148° |
| 2026-05-04 21:28 | 33.27233 | -117.78276 | 23377 ft | 443 kts | 148° |
| 2026-05-04 21:29 | 33.24905 | -117.75815 | 23793 ft | 446 kts | 148° |
| 2026-05-04 21:29 | 33.22585 | -117.73361 | 24165 ft | 450 kts | 148° |
| 2026-05-04 21:29 | 33.20226 | -117.70866 | 24577 ft | 452 kts | 148° |
| 2026-05-04 21:29 | 33.17858 | -117.68365 | 24992 ft | 454 kts | 148° |
| 2026-05-04 21:30 | 33.15508 | -117.65879 | 25318 ft | 460 kts | 148° |
| 2026-05-04 21:30 | 33.13111 | -117.63251 | 25661 ft | 465 kts | 147° |
| 2026-05-04 21:30 | 33.10754 | -117.60620 | 26050 ft | 467 kts | 146° |
| 2026-05-04 21:30 | 33.08380 | -117.57961 | 26352 ft | 471 kts | 146° |
| 2026-05-04 21:31 | 33.03570 | -117.52591 | 26966 ft | 478 kts | 147° |
| 2026-05-04 21:31 | 33.01130 | -117.49882 | 27330 ft | 480 kts | 147° |
| 2026-05-04 21:31 | 32.98663 | -117.47144 | 27569 ft | 484 kts | 147° |
| 2026-05-04 21:32 | 32.96203 | -117.44410 | 27933 ft | 485 kts | 147° |
| 2026-05-04 21:32 | 32.93716 | -117.41660 | 28175 ft | 489 kts | 147° |
| 2026-05-04 21:32 | 32.91215 | -117.38894 | 28421 ft | 492 kts | 147° |
| 2026-05-04 21:32 | 32.88721 | -117.36135 | 28740 ft | 494 kts | 147° |
| 2026-05-04 21:33 | 32.86193 | -117.33337 | 29060 ft | 494 kts | 148° |
| 2026-05-04 21:33 | 32.83676 | -117.30548 | 29438 ft | 493 kts | 148° |
| 2026-05-04 21:33 | 32.81165 | -117.27766 | 29866 ft | 489 kts | 148° |
| 2026-05-04 21:33 | 32.78676 | -117.25023 | 30055 ft | 491 kts | 148° |
| 2026-05-04 21:34 | 32.76163 | -117.22257 | 30294 ft | 492 kts | 149° |
| 2026-05-04 21:34 | 32.73656 | -117.19495 | 30578 ft | 492 kts | 149° |
| 2026-05-04 21:34 | 32.71138 | -117.16725 | 30776 ft | 494 kts | 149° |
| 2026-05-04 21:34 | 32.68632 | -117.13969 | 31082 ft | 492 kts | 150° |
| 2026-05-04 21:35 | 32.66159 | -117.11139 | 31387 ft | 496 kts | 147° |
| 2026-05-04 21:35 | 32.63781 | -117.08128 | 31557 ft | 502 kts | 144° |
| 2026-05-04 21:35 | 32.61443 | -117.05053 | 31746 ft | 504 kts | 144° |
| 2026-05-04 21:35 | 32.59108 | -117.01959 | 31945 ft | 505 kts | 144° |
| 2026-05-04 21:36 | 32.56757 | -116.98850 | 32160 ft | 507 kts | 144° |
| 2026-05-04 21:36 | 32.54479 | -116.95644 | 32372 ft | 513 kts | 140° |
| 2026-05-04 21:36 | 32.52320 | -116.92205 | 32563 ft | 521 kts | 135° |
| 2026-05-04 21:36 | 32.50334 | -116.88651 | 32734 ft | 526 kts | 134° |
| 2026-05-04 21:37 | 32.48360 | -116.84983 | 32899 ft | 529 kts | 133° |
| 2026-05-04 21:37 | 32.46375 | -116.81267 | 33049 ft | 531 kts | 133° |
| 2026-05-04 21:37 | 32.44403 | -116.77586 | 33307 ft | 530 kts | 134° |
| 2026-05-04 21:37 | 32.42433 | -116.73930 | 33700 ft | 527 kts | 134° |
| 2026-05-04 21:38 | 32.40477 | -116.70319 | 34087 ft | 524 kts | 134° |
| 2026-05-04 21:38 | 32.38486 | -116.66661 | 34333 ft | 524 kts | 134° |
| 2026-05-04 21:38 | 32.36521 | -116.63063 | 34647 ft | 522 kts | 133° |
| 2026-05-04 21:38 | 32.34560 | -116.59480 | 34852 ft | 523 kts | 134° |
| 2026-05-04 21:39 | 32.32601 | -116.55890 | 35041 ft | 524 kts | 134° |
| 2026-05-04 21:39 | 32.30621 | -116.52258 | 35380 ft | 522 kts | 134° |
| 2026-05-04 21:39 | 32.28670 | -116.48686 | 35710 ft | 518 kts | 133° |
| 2026-05-04 21:39 | 32.26713 | -116.45106 | 36014 ft | 517 kts | 134° |
| 2026-05-04 21:40 | 32.24778 | -116.41567 | 36359 ft | 513 kts | 134° |
| 2026-05-04 21:40 | 32.22833 | -116.38043 | 36634 ft | 511 kts | 133° |
| 2026-05-04 21:40 | 32.20892 | -116.34515 | 36729 ft | 513 kts | 134° |
| 2026-05-04 21:40 | 32.18959 | -116.31003 | 36885 ft | 512 kts | 133° |
| 2026-05-04 21:41 | 32.17031 | -116.27490 | 36979 ft | 513 kts | 134° |
| 2026-05-04 21:41 | 32.13159 | -116.20443 | 36999 ft | 510 kts | 133° |
| 2026-05-04 21:42 | 32.09293 | -116.13432 | 37016 ft | 508 kts | 134° |
| 2026-05-04 21:42 | 32.05414 | -116.06421 | 37021 ft | 510 kts | 133° |
| 2026-05-04 21:43 | 32.01567 | -115.99458 | 37018 ft | 508 kts | 133° |
| 2026-05-04 21:43 | 31.97710 | -115.92492 | 37030 ft | 506 kts | 134° |
| 2026-05-04 21:44 | 31.93867 | -115.85563 | 37024 ft | 503 kts | 133° |
| 2026-05-04 21:44 | 31.90031 | -115.78684 | 37021 ft | 505 kts | 133° |
| 2026-05-04 21:45 | 31.86163 | -115.71768 | 37007 ft | 509 kts | 134° |
| 2026-05-04 21:45 | 31.82277 | -115.64818 | 36995 ft | 511 kts | 133° |
| 2026-05-04 21:46 | 31.78383 | -115.57849 | 36977 ft | 506 kts | 133° |
| 2026-05-04 21:46 | 31.74534 | -115.50991 | 36947 ft | 506 kts | 133° |
| 2026-05-04 21:47 | 31.70637 | -115.44058 | 36922 ft | 508 kts | 132° |
| 2026-05-04 21:47 | 31.66730 | -115.37116 | 36905 ft | 511 kts | 132° |
| 2026-05-04 21:48 | 31.62840 | -115.30211 | 36882 ft | 510 kts | 133° |
| 2026-05-04 21:48 | 31.58924 | -115.23298 | 36871 ft | 510 kts | 132° |
| 2026-05-04 21:49 | 31.54999 | -115.16363 | 36869 ft | 507 kts | 133° |
| 2026-05-04 21:49 | 31.51095 | -115.09489 | 36831 ft | 507 kts | 133° |
| 2026-05-04 21:50 | 31.47179 | -115.02604 | 36804 ft | 508 kts | 132° |
| 2026-05-04 21:50 | 31.43281 | -114.95753 | 36782 ft | 509 kts | 132° |
| 2026-05-04 21:51 | 31.39348 | -114.88848 | 36765 ft | 508 kts | 132° |
| 2026-05-04 21:51 | 31.35434 | -114.82004 | 36772 ft | 510 kts | 132° |
| 2026-05-04 21:52 | 31.31511 | -114.75143 | 36774 ft | 510 kts | 131° |
| 2026-05-04 21:52 | 31.27567 | -114.68248 | 36768 ft | 508 kts | 132° |
| 2026-05-04 21:53 | 31.23625 | -114.61387 | 36772 ft | 509 kts | 132° |
| 2026-05-04 21:53 | 31.19712 | -114.54578 | 36774 ft | 508 kts | 132° |
| 2026-05-04 21:54 | 31.15759 | -114.47714 | 36772 ft | 509 kts | 132° |
| 2026-05-04 21:54 | 31.11803 | -114.40855 | 36770 ft | 509 kts | 132° |
| 2026-05-04 21:55 | 31.07854 | -114.34032 | 36762 ft | 509 kts | 134° |
| 2026-05-04 21:55 | 31.03637 | -114.27531 | 36764 ft | 504 kts | 137° |
| 2026-05-04 21:56 | 30.99297 | -114.21149 | 36767 ft | 503 kts | 137° |
| 2026-05-04 21:56 | 30.94933 | -114.14732 | 36777 ft | 504 kts | 137° |
| 2026-05-04 21:57 | 30.90597 | -114.08331 | 36778 ft | 503 kts | 137° |
| 2026-05-04 21:57 | 30.86258 | -114.01944 | 36784 ft | 503 kts | 137° |
| 2026-05-04 21:58 | 30.81916 | -113.95560 | 36794 ft | 503 kts | 137° |
| 2026-05-04 21:58 | 30.77563 | -113.89169 | 36794 ft | 506 kts | 137° |
| 2026-05-04 21:59 | 30.73211 | -113.82793 | 36803 ft | 506 kts | 137° |
| 2026-05-04 21:59 | 30.68847 | -113.76393 | 36803 ft | 505 kts | 137° |
| 2026-05-04 22:00 | 30.64488 | -113.70029 | 36816 ft | 506 kts | 137° |
| 2026-05-04 22:00 | 30.60121 | -113.63658 | 36821 ft | 506 kts | 137° |
| 2026-05-04 22:01 | 30.55735 | -113.57268 | 36829 ft | 506 kts | 137° |
| 2026-05-04 22:01 | 30.51366 | -113.50906 | 36831 ft | 504 kts | 137° |
| 2026-05-04 22:02 | 30.47003 | -113.44577 | 36836 ft | 505 kts | 137° |
| 2026-05-04 22:02 | 30.42583 | -113.38175 | 36838 ft | 507 kts | 136° |
| 2026-05-04 22:03 | 30.38189 | -113.31814 | 36843 ft | 507 kts | 137° |
| 2026-05-04 22:03 | 30.33813 | -113.25483 | 36851 ft | 506 kts | 137° |
| 2026-05-04 22:04 | 30.29402 | -113.19117 | 36852 ft | 505 kts | 137° |
| 2026-05-04 22:04 | 30.25030 | -113.12824 | 36850 ft | 506 kts | 136° |
| 2026-05-04 22:05 | 30.20607 | -113.06463 | 36853 ft | 506 kts | 136° |
| 2026-05-04 22:05 | 30.16204 | -113.00139 | 36855 ft | 505 kts | 137° |
| 2026-05-04 22:06 | 30.11796 | -112.93816 | 36858 ft | 506 kts | 136° |
| 2026-05-04 22:06 | 30.07376 | -112.87489 | 36866 ft | 505 kts | 137° |
| 2026-05-04 22:07 | 30.02988 | -112.81213 | 36872 ft | 504 kts | 136° |
| 2026-05-04 22:07 | 29.98582 | -112.74933 | 36871 ft | 503 kts | 136° |
| 2026-05-04 22:08 | 29.94196 | -112.68684 | 36886 ft | 502 kts | 136° |
| 2026-05-04 22:08 | 29.89834 | -112.62472 | 36906 ft | 501 kts | 136° |
| 2026-05-04 22:09 | 29.85408 | -112.56199 | 36919 ft | 503 kts | 136° |
| 2026-05-04 22:09 | 29.81017 | -112.49972 | 36927 ft | 503 kts | 136° |
| 2026-05-04 22:10 | 29.76606 | -112.43724 | 36928 ft | 503 kts | 136° |
| 2026-05-04 22:10 | 29.72181 | -112.37465 | 36933 ft | 502 kts | 136° |
| 2026-05-04 22:11 | 29.67803 | -112.31280 | 36928 ft | 501 kts | 136° |
| 2026-05-04 22:11 | 29.63401 | -112.25078 | 36929 ft | 502 kts | 136° |
| 2026-05-04 22:12 | 29.59003 | -112.18887 | 36927 ft | 500 kts | 136° |
| 2026-05-04 22:12 | 29.54579 | -112.12672 | 36928 ft | 501 kts | 136° |
| 2026-05-04 22:13 | 29.50173 | -112.06489 | 36932 ft | 501 kts | 136° |
| 2026-05-04 22:13 | 29.45782 | -112.00346 | 36925 ft | 501 kts | 136° |
| 2026-05-04 22:14 | 29.41367 | -111.94168 | 36917 ft | 501 kts | 136° |
| 2026-05-04 22:14 | 29.36937 | -111.87978 | 36910 ft | 501 kts | 136° |
| 2026-05-04 22:15 | 29.32537 | -111.81836 | 36908 ft | 498 kts | 136° |
| 2026-05-04 22:15 | 29.28158 | -111.75740 | 36898 ft | 500 kts | 136° |
| 2026-05-04 22:16 | 29.23738 | -111.69604 | 36892 ft | 501 kts | 136° |
| 2026-05-04 22:16 | 29.19311 | -111.63449 | 36896 ft | 500 kts | 136° |
| 2026-05-04 22:17 | 29.14898 | -111.57335 | 36892 ft | 501 kts | 136° |
| 2026-05-04 22:17 | 29.10466 | -111.51198 | 36891 ft | 499 kts | 136° |
| 2026-05-04 22:18 | 29.06038 | -111.45074 | 36897 ft | 499 kts | 136° |
| 2026-05-04 22:18 | 29.01607 | -111.38965 | 36899 ft | 500 kts | 136° |
| 2026-05-04 22:19 | 28.97194 | -111.32884 | 36900 ft | 499 kts | 136° |
| 2026-05-04 22:19 | 28.92768 | -111.26787 | 36909 ft | 497 kts | 136° |
| 2026-05-04 22:20 | 28.88344 | -111.20710 | 36912 ft | 497 kts | 136° |
| 2026-05-04 22:20 | 28.83947 | -111.14676 | 36916 ft | 497 kts | 136° |
| 2026-05-04 22:21 | 28.79549 | -111.08639 | 36913 ft | 495 kts | 136° |
| 2026-05-04 22:21 | 28.75150 | -111.02619 | 36920 ft | 496 kts | 136° |
| 2026-05-04 22:22 | 28.70732 | -110.96598 | 36931 ft | 495 kts | 136° |
| 2026-05-04 22:22 | 28.66321 | -110.90593 | 36948 ft | 494 kts | 136° |
| 2026-05-04 22:23 | 28.61901 | -110.84586 | 36955 ft | 495 kts | 136° |
| 2026-05-04 22:23 | 28.57509 | -110.78609 | 36952 ft | 494 kts | 136° |
| 2026-05-04 22:24 | 28.53085 | -110.72608 | 36946 ft | 495 kts | 136° |
| 2026-05-04 22:24 | 28.48656 | -110.66605 | 36945 ft | 497 kts | 136° |
| 2026-05-04 22:25 | 28.44201 | -110.60573 | 36947 ft | 498 kts | 135° |
| 2026-05-04 22:25 | 28.39750 | -110.54557 | 36946 ft | 498 kts | 135° |
| 2026-05-04 22:26 | 28.35293 | -110.48539 | 36945 ft | 498 kts | 135° |
| 2026-05-04 22:26 | 28.30851 | -110.42548 | 36948 ft | 496 kts | 136° |
| 2026-05-04 22:27 | 28.26399 | -110.36560 | 36954 ft | 498 kts | 135° |
| 2026-05-04 22:27 | 28.21913 | -110.30528 | 36954 ft | 497 kts | 136° |
| 2026-05-04 22:28 | 28.17479 | -110.24577 | 36962 ft | 498 kts | 136° |
| 2026-05-04 22:28 | 28.12997 | -110.18568 | 36963 ft | 499 kts | 136° |
| 2026-05-04 22:29 | 28.08539 | -110.12601 | 36958 ft | 498 kts | 136° |
| 2026-05-04 22:29 | 28.04060 | -110.06614 | 36955 ft | 498 kts | 136° |
| 2026-05-04 22:30 | 27.99584 | -110.00643 | 36949 ft | 498 kts | 136° |
| 2026-05-04 22:30 | 27.95094 | -109.94659 | 36949 ft | 498 kts | 136° |
| 2026-05-04 22:31 | 27.90621 | -109.88703 | 36947 ft | 498 kts | 136° |
| 2026-05-04 22:31 | 27.86137 | -109.82742 | 36957 ft | 498 kts | 136° |
| 2026-05-04 22:32 | 27.81651 | -109.76792 | 36961 ft | 498 kts | 135° |
| 2026-05-04 22:32 | 27.77163 | -109.70839 | 36969 ft | 497 kts | 136° |
| 2026-05-04 22:33 | 27.72668 | -109.64896 | 36987 ft | 499 kts | 136° |
| 2026-05-04 22:33 | 27.68164 | -109.58942 | 36997 ft | 499 kts | 135° |
| 2026-05-04 22:34 | 27.63666 | -109.53006 | 37003 ft | 500 kts | 135° |
| 2026-05-04 22:34 | 27.59144 | -109.47041 | 37008 ft | 499 kts | 135° |
| 2026-05-04 22:35 | 27.54627 | -109.41096 | 37000 ft | 500 kts | 135° |
| 2026-05-04 22:35 | 27.50114 | -109.35162 | 36993 ft | 499 kts | 135° |
| 2026-05-04 22:36 | 27.45586 | -109.29220 | 36986 ft | 500 kts | 136° |
| 2026-05-04 22:36 | 27.41068 | -109.23305 | 36981 ft | 501 kts | 135° |
| 2026-05-04 22:37 | 27.36532 | -109.17361 | 36995 ft | 499 kts | 135° |
| 2026-05-04 22:37 | 27.32005 | -109.11443 | 37007 ft | 501 kts | 136° |
| 2026-05-04 22:38 | 27.27463 | -109.05516 | 37001 ft | 500 kts | 135° |
| 2026-05-04 22:38 | 27.22912 | -108.99586 | 36998 ft | 501 kts | 135° |
| 2026-05-04 22:39 | 27.18381 | -108.93681 | 37030 ft | 500 kts | 135° |
| 2026-05-04 22:39 | 27.13828 | -108.87759 | 37051 ft | 500 kts | 135° |
| 2026-05-04 22:40 | 27.09301 | -108.81885 | 37067 ft | 499 kts | 135° |
| 2026-05-04 22:40 | 27.04764 | -108.76002 | 37069 ft | 500 kts | 135° |
| 2026-05-04 22:41 | 27.00222 | -108.70121 | 37051 ft | 498 kts | 135° |
| 2026-05-04 22:41 | 26.95667 | -108.64232 | 37042 ft | 498 kts | 135° |
| 2026-05-04 22:42 | 26.91147 | -108.58391 | 37040 ft | 498 kts | 135° |
| 2026-05-04 22:42 | 26.86603 | -108.52528 | 37030 ft | 496 kts | 134° |
| 2026-05-04 22:43 | 26.82093 | -108.46719 | 37026 ft | 497 kts | 135° |
| 2026-05-04 22:43 | 26.77540 | -108.40863 | 37038 ft | 498 kts | 135° |
| 2026-05-04 22:44 | 26.73009 | -108.35042 | 37041 ft | 497 kts | 134° |
| 2026-05-04 22:44 | 26.68461 | -108.29200 | 37061 ft | 497 kts | 135° |
| 2026-05-04 22:45 | 26.63931 | -108.23387 | 37087 ft | 497 kts | 135° |
| 2026-05-04 22:45 | 26.57284 | -108.14526 | 37134 ft | 500 kts | 129° |
| 2026-05-04 22:46 | 26.53237 | -108.08231 | 37154 ft | 499 kts | 128° |
| 2026-05-04 22:46 | 26.49210 | -108.01920 | 37162 ft | 499 kts | 128° |
| 2026-05-04 22:47 | 26.45164 | -107.95606 | 37188 ft | 500 kts | 128° |
| 2026-05-04 22:47 | 26.41132 | -107.89331 | 37205 ft | 498 kts | 128° |
| 2026-05-04 22:48 | 26.37074 | -107.83027 | 37195 ft | 498 kts | 128° |
| 2026-05-04 22:48 | 26.33050 | -107.76794 | 37201 ft | 499 kts | 128° |
| 2026-05-04 22:49 | 26.28970 | -107.70475 | 37177 ft | 499 kts | 128° |
| 2026-05-04 22:49 | 26.24925 | -107.64216 | 37183 ft | 500 kts | 128° |
| 2026-05-04 22:50 | 26.20880 | -107.57964 | 37225 ft | 499 kts | 128° |
| 2026-05-04 22:50 | 26.16802 | -107.51671 | 37245 ft | 499 kts | 128° |
| 2026-05-04 22:51 | 26.12757 | -107.45445 | 37270 ft | 499 kts | 128° |
| 2026-05-04 22:51 | 26.08694 | -107.39199 | 37268 ft | 498 kts | 128° |
| 2026-05-04 22:52 | 26.04630 | -107.32950 | 37270 ft | 498 kts | 128° |
| 2026-05-04 22:52 | 26.00571 | -107.26720 | 37277 ft | 498 kts | 128° |
| 2026-05-04 22:53 | 25.96531 | -107.20534 | 37290 ft | 497 kts | 129° |
| 2026-05-04 22:53 | 25.92479 | -107.14324 | 37320 ft | 497 kts | 128° |
| 2026-05-04 22:54 | 25.88407 | -107.08102 | 37360 ft | 498 kts | 128° |
| 2026-05-04 22:54 | 25.84352 | -107.01909 | 37354 ft | 497 kts | 128° |
| 2026-05-04 22:55 | 25.80292 | -106.95706 | 37385 ft | 497 kts | 128° |
| 2026-05-04 22:55 | 25.76236 | -106.89500 | 37381 ft | 497 kts | 128° |
| 2026-05-04 22:56 | 25.72203 | -106.83342 | 37376 ft | 496 kts | 128° |
| 2026-05-04 22:56 | 25.68127 | -106.77123 | 37393 ft | 497 kts | 128° |
| 2026-05-04 22:57 | 25.64077 | -106.70953 | 37403 ft | 497 kts | 128° |
| 2026-05-04 22:57 | 25.60025 | -106.64794 | 37424 ft | 498 kts | 128° |
| 2026-05-04 22:58 | 25.55936 | -106.58573 | 37435 ft | 498 kts | 128° |
| 2026-05-04 22:58 | 25.51852 | -106.52374 | 37444 ft | 498 kts | 128° |
| 2026-05-04 22:59 | 25.47783 | -106.46204 | 37444 ft | 497 kts | 128° |
| 2026-05-04 22:59 | 25.43719 | -106.40048 | 37452 ft | 497 kts | 128° |
| 2026-05-04 23:00 | 25.39606 | -106.33901 | 37464 ft | 497 kts | 129° |
| 2026-05-04 23:00 | 25.35448 | -106.27801 | 37467 ft | 497 kts | 130° |
| 2026-05-04 23:01 | 25.31308 | -106.21722 | 37472 ft | 497 kts | 129° |
| 2026-05-04 23:01 | 25.27149 | -106.15603 | 37479 ft | 497 kts | 129° |
| 2026-05-04 23:02 | 25.23000 | -106.09501 | 37486 ft | 496 kts | 129° |
| 2026-05-04 23:02 | 25.18873 | -106.03435 | 37497 ft | 496 kts | 129° |
| 2026-05-04 23:03 | 25.14724 | -105.97356 | 37503 ft | 496 kts | 129° |
| 2026-05-04 23:03 | 25.10597 | -105.91300 | 37505 ft | 497 kts | 129° |
| 2026-05-04 23:04 | 25.06414 | -105.85185 | 37505 ft | 497 kts | 129° |
| 2026-05-04 23:04 | 25.02241 | -105.79108 | 37510 ft | 498 kts | 129° |
| 2026-05-04 23:05 | 24.98076 | -105.73038 | 37505 ft | 497 kts | 129° |
| 2026-05-04 23:05 | 24.93914 | -105.66966 | 37488 ft | 496 kts | 129° |
| 2026-05-04 23:06 | 24.89775 | -105.60940 | 37476 ft | 496 kts | 129° |
| 2026-05-04 23:06 | 24.85611 | -105.54884 | 37463 ft | 496 kts | 129° |
| 2026-05-04 23:07 | 24.81428 | -105.48804 | 37458 ft | 496 kts | 129° |
| 2026-05-04 23:07 | 24.77282 | -105.42783 | 37456 ft | 496 kts | 129° |
| 2026-05-04 23:08 | 24.73113 | -105.36746 | 37444 ft | 496 kts | 129° |
| 2026-05-04 23:08 | 24.68947 | -105.30704 | 37437 ft | 495 kts | 129° |
| 2026-05-04 23:09 | 24.64778 | -105.24673 | 37435 ft | 494 kts | 129° |
| 2026-05-04 23:09 | 24.60623 | -105.18700 | 37432 ft | 494 kts | 129° |
| 2026-05-04 23:10 | 24.56450 | -105.12708 | 37449 ft | 493 kts | 129° |
| 2026-05-04 23:10 | 24.52294 | -105.06729 | 37466 ft | 492 kts | 129° |
| 2026-05-04 23:11 | 24.48137 | -105.00762 | 37489 ft | 493 kts | 129° |
| 2026-05-04 23:11 | 24.43968 | -104.94780 | 37488 ft | 492 kts | 129° |
| 2026-05-04 23:12 | 24.39833 | -104.88853 | 37471 ft | 491 kts | 129° |
| 2026-05-04 23:12 | 24.35686 | -104.82918 | 37448 ft | 492 kts | 129° |
| 2026-05-04 23:13 | 24.31518 | -104.76957 | 37416 ft | 491 kts | 129° |
| 2026-05-04 23:13 | 24.27359 | -104.71018 | 37388 ft | 492 kts | 129° |
| 2026-05-04 23:14 | 24.23187 | -104.65070 | 37348 ft | 492 kts | 129° |
| 2026-05-04 23:14 | 24.19040 | -104.59150 | 37320 ft | 491 kts | 129° |
| 2026-05-04 23:15 | 24.14847 | -104.53184 | 37298 ft | 492 kts | 129° |
| 2026-05-04 23:15 | 24.10756 | -104.47250 | 37278 ft | 491 kts | 127° |
| 2026-05-04 23:16 | 24.06691 | -104.41206 | 37279 ft | 491 kts | 127° |
| 2026-05-04 23:16 | 24.02659 | -104.35218 | 37291 ft | 491 kts | 127° |
| 2026-05-04 23:17 | 23.98580 | -104.29182 | 37325 ft | 491 kts | 127° |
| 2026-05-04 23:17 | 23.94520 | -104.23181 | 37347 ft | 491 kts | 128° |
| 2026-05-04 23:18 | 23.90461 | -104.17191 | 37351 ft | 491 kts | 128° |
| 2026-05-04 23:18 | 23.86394 | -104.11197 | 37362 ft | 491 kts | 128° |
| 2026-05-04 23:19 | 23.82341 | -104.05229 | 37367 ft | 490 kts | 128° |
| 2026-05-04 23:19 | 23.78268 | -103.99235 | 37371 ft | 490 kts | 127° |
| 2026-05-04 23:20 | 23.74213 | -103.93274 | 37381 ft | 490 kts | 127° |
| 2026-05-04 23:20 | 23.70177 | -103.87352 | 37405 ft | 489 kts | 127° |
| 2026-05-04 23:21 | 23.66102 | -103.81367 | 37429 ft | 489 kts | 127° |
| 2026-05-04 23:21 | 23.62058 | -103.75443 | 37434 ft | 488 kts | 128° |
| 2026-05-04 23:22 | 23.57999 | -103.69529 | 37437 ft | 488 kts | 127° |
| 2026-05-04 23:22 | 23.53936 | -103.63604 | 37444 ft | 488 kts | 127° |
| 2026-05-04 23:23 | 23.49887 | -103.57713 | 37461 ft | 487 kts | 128° |
| 2026-05-04 23:23 | 23.45815 | -103.51796 | 37480 ft | 488 kts | 128° |
| 2026-05-04 23:24 | 23.41749 | -103.45884 | 37487 ft | 488 kts | 127° |
| 2026-05-04 23:24 | 23.37685 | -103.39977 | 37479 ft | 487 kts | 128° |
| 2026-05-04 23:25 | 23.33630 | -103.34091 | 37459 ft | 486 kts | 128° |
| 2026-05-04 23:25 | 23.29590 | -103.28231 | 37455 ft | 486 kts | 128° |
| 2026-05-04 23:26 | 23.25530 | -103.22349 | 37438 ft | 486 kts | 128° |
| 2026-05-04 23:26 | 23.21465 | -103.16462 | 37444 ft | 485 kts | 128° |
| 2026-05-04 23:27 | 23.17429 | -103.10622 | 37438 ft | 485 kts | 128° |
| 2026-05-04 23:27 | 23.13364 | -103.04754 | 37470 ft | 484 kts | 128° |
| 2026-05-04 23:28 | 23.09333 | -102.98962 | 37482 ft | 484 kts | 128° |
| 2026-05-04 23:28 | 23.05275 | -102.93127 | 37499 ft | 484 kts | 128° |
| 2026-05-04 23:29 | 23.01209 | -102.87276 | 37495 ft | 484 kts | 128° |
| 2026-05-04 23:29 | 22.97183 | -102.81491 | 37485 ft | 483 kts | 128° |
| 2026-05-04 23:30 | 22.93137 | -102.75676 | 37466 ft | 484 kts | 128° |
| 2026-05-04 23:30 | 22.89021 | -102.69881 | 37460 ft | 483 kts | 131° |
| 2026-05-04 23:31 | 22.84452 | -102.64494 | 37464 ft | 481 kts | 136° |
| 2026-05-04 23:31 | 22.79815 | -102.59307 | 37463 ft | 481 kts | 135° |
| 2026-05-04 23:32 | 22.75159 | -102.54085 | 37465 ft | 480 kts | 135° |
| 2026-05-04 23:32 | 22.70548 | -102.48901 | 37471 ft | 480 kts | 135° |
| 2026-05-04 23:33 | 22.65896 | -102.43676 | 37464 ft | 479 kts | 135° |
| 2026-05-04 23:33 | 22.61279 | -102.38490 | 37454 ft | 479 kts | 135° |
| 2026-05-04 23:34 | 22.56652 | -102.33296 | 37445 ft | 479 kts | 136° |
| 2026-05-04 23:34 | 22.52019 | -102.28107 | 37427 ft | 480 kts | 136° |
| 2026-05-04 23:35 | 22.47390 | -102.22922 | 37408 ft | 479 kts | 136° |
| 2026-05-04 23:35 | 22.42771 | -102.17751 | 37403 ft | 479 kts | 136° |
| 2026-05-04 23:36 | 22.38129 | -102.12560 | 37401 ft | 478 kts | 136° |
| 2026-05-04 23:36 | 22.33504 | -102.07407 | 37401 ft | 478 kts | 136° |
| 2026-05-04 23:37 | 22.28895 | -102.02286 | 37394 ft | 478 kts | 136° |
| 2026-05-04 23:37 | 22.24258 | -101.97131 | 37402 ft | 477 kts | 136° |
| 2026-05-04 23:38 | 22.19619 | -101.91973 | 37410 ft | 478 kts | 136° |
| 2026-05-04 23:38 | 22.15011 | -101.86857 | 37413 ft | 477 kts | 136° |
| 2026-05-04 23:39 | 22.10377 | -101.81712 | 37423 ft | 477 kts | 136° |
| 2026-05-04 23:39 | 22.05779 | -101.76613 | 37428 ft | 476 kts | 136° |
| 2026-05-04 23:40 | 22.01152 | -101.71487 | 37431 ft | 477 kts | 136° |
| 2026-05-04 23:40 | 21.96518 | -101.66356 | 37435 ft | 476 kts | 135° |
| 2026-05-04 23:41 | 21.91914 | -101.61259 | 37442 ft | 476 kts | 136° |
| 2026-05-04 23:41 | 21.87265 | -101.56119 | 37448 ft | 476 kts | 136° |
| 2026-05-04 23:42 | 21.82656 | -101.51035 | 37442 ft | 475 kts | 136° |
| 2026-05-04 23:42 | 21.78050 | -101.45978 | 37447 ft | 475 kts | 136° |
| 2026-05-04 23:43 | 21.73425 | -101.40896 | 37454 ft | 475 kts | 136° |
| 2026-05-04 23:43 | 21.68796 | -101.35809 | 37455 ft | 474 kts | 136° |
| 2026-05-04 23:44 | 21.64175 | -101.30731 | 37459 ft | 474 kts | 136° |
| 2026-05-04 23:44 | 21.59568 | -101.25674 | 37458 ft | 473 kts | 136° |
| 2026-05-04 23:45 | 21.54975 | -101.20640 | 37454 ft | 473 kts | 136° |
| 2026-05-04 23:45 | 21.50384 | -101.15606 | 37464 ft | 473 kts | 136° |
| 2026-05-04 23:46 | 21.45769 | -101.10558 | 37470 ft | 473 kts | 136° |
| 2026-05-04 23:46 | 21.41171 | -101.05531 | 37474 ft | 472 kts | 136° |
| 2026-05-04 23:47 | 21.36553 | -101.00485 | 37462 ft | 473 kts | 136° |
| 2026-05-04 23:47 | 21.31936 | -100.95448 | 37444 ft | 472 kts | 136° |
| 2026-05-04 23:48 | 21.27357 | -100.90452 | 37419 ft | 471 kts | 136° |
| 2026-05-04 23:48 | 21.22758 | -100.85445 | 37407 ft | 471 kts | 136° |
| 2026-05-04 23:49 | 21.18174 | -100.80453 | 37403 ft | 470 kts | 136° |
| 2026-05-04 23:49 | 21.13575 | -100.75453 | 37396 ft | 469 kts | 136° |
| 2026-05-04 23:50 | 21.08993 | -100.70476 | 37404 ft | 469 kts | 136° |
| 2026-05-04 23:50 | 21.04405 | -100.65490 | 37410 ft | 468 kts | 136° |
| 2026-05-04 23:51 | 20.99843 | -100.60539 | 37422 ft | 468 kts | 136° |
| 2026-05-04 23:51 | 20.95269 | -100.55580 | 37434 ft | 468 kts | 136° |
| 2026-05-04 23:52 | 20.90700 | -100.50633 | 37438 ft | 468 kts | 136° |
| 2026-05-04 23:52 | 20.86106 | -100.45679 | 37444 ft | 467 kts | 136° |
| 2026-05-04 23:53 | 20.81530 | -100.40746 | 37438 ft | 466 kts | 136° |
| 2026-05-04 23:53 | 20.76958 | -100.35811 | 37402 ft | 467 kts | 136° |
| 2026-05-04 23:54 | 20.72404 | -100.30897 | 37375 ft | 465 kts | 136° |
| 2026-05-04 23:54 | 20.67838 | -100.25973 | 37367 ft | 465 kts | 136° |
| 2026-05-04 23:55 | 20.63284 | -100.21064 | 37354 ft | 465 kts | 136° |
| 2026-05-04 23:56 | 20.56453 | -100.13760 | 37361 ft | 465 kts | 136° |
| 2026-05-04 23:56 | 20.51859 | -100.08857 | 37381 ft | 464 kts | 136° |
| 2026-05-04 23:57 | 20.47304 | -100.03994 | 37411 ft | 464 kts | 136° |
| 2026-05-04 23:57 | 20.42770 | -99.99154 | 37458 ft | 462 kts | 136° |
| 2026-05-04 23:58 | 20.38217 | -99.94294 | 37477 ft | 461 kts | 136° |
| 2026-05-04 23:58 | 20.33703 | -99.89477 | 37499 ft | 460 kts | 136° |
| 2026-05-04 23:59 | 20.29192 | -99.84670 | 37518 ft | 459 kts | 136° |
| 2026-05-04 23:59 | 20.24540 | -99.79981 | 37522 ft | 457 kts | 141° |
| 2026-05-05 00:00 | 20.19457 | -99.75948 | 37545 ft | 455 kts | 149° |
| 2026-05-05 00:00 | 20.13979 | -99.72649 | 37559 ft | 452 kts | 156° |
| 2026-05-05 00:01 | 20.08235 | -99.69900 | 37579 ft | 451 kts | 158° |
| 2026-05-05 00:01 | 20.02500 | -99.67206 | 37587 ft | 450 kts | 158° |
| 2026-05-05 00:02 | 19.96774 | -99.64506 | 37591 ft | 449 kts | 158° |
| 2026-05-05 00:02 | 19.91036 | -99.61794 | 37595 ft | 449 kts | 158° |
| 2026-05-05 00:03 | 19.85313 | -99.59093 | 37588 ft | 449 kts | 158° |
| 2026-05-05 00:03 | 19.79606 | -99.56400 | 37587 ft | 448 kts | 158° |
| 2026-05-05 00:04 | 19.73882 | -99.53699 | 37584 ft | 447 kts | 158° |
| 2026-05-05 00:04 | 19.68191 | -99.51016 | 37584 ft | 446 kts | 158° |
| 2026-05-05 00:05 | 19.62501 | -99.48338 | 37589 ft | 445 kts | 158° |
| 2026-05-05 00:05 | 19.56818 | -99.45662 | 37577 ft | 445 kts | 158° |
| 2026-05-05 00:06 | 19.51168 | -99.43008 | 37565 ft | 445 kts | 158° |
| 2026-05-05 00:06 | 19.45498 | -99.40341 | 37522 ft | 444 kts | 158° |
| 2026-05-05 00:07 | 19.39861 | -99.37695 | 37499 ft | 443 kts | 158° |
| 2026-05-05 00:07 | 19.34216 | -99.35049 | 37481 ft | 442 kts | 157° |
| 2026-05-05 00:08 | 19.28541 | -99.32388 | 37493 ft | 442 kts | 158° |
| 2026-05-05 00:08 | 19.22923 | -99.29755 | 37506 ft | 442 kts | 158° |
| 2026-05-05 00:09 | 19.17288 | -99.27116 | 37529 ft | 441 kts | 158° |
| 2026-05-05 00:09 | 19.11686 | -99.24496 | 37524 ft | 441 kts | 158° |
| 2026-05-05 00:10 | 19.06068 | -99.21868 | 37484 ft | 441 kts | 158° |
| 2026-05-05 00:10 | 19.00453 | -99.19248 | 37430 ft | 440 kts | 157° |
| 2026-05-05 00:11 | 18.94838 | -99.16627 | 37399 ft | 440 kts | 157° |
| 2026-05-05 00:11 | 18.89226 | -99.14006 | 37358 ft | 440 kts | 158° |
| 2026-05-05 00:12 | 18.83613 | -99.11390 | 37312 ft | 441 kts | 158° |
| 2026-05-05 00:12 | 18.77968 | -99.08761 | 37302 ft | 441 kts | 158° |
| 2026-05-05 00:13 | 18.72346 | -99.06144 | 37279 ft | 442 kts | 157° |
| 2026-05-05 00:13 | 18.66691 | -99.03511 | 37302 ft | 442 kts | 157° |
| 2026-05-05 00:14 | 18.61081 | -99.00899 | 37302 ft | 441 kts | 157° |
| 2026-05-05 00:14 | 18.55446 | -98.98277 | 37297 ft | 442 kts | 157° |
| 2026-05-05 00:15 | 18.49796 | -98.95600 | 37295 ft | 443 kts | 154° |
| 2026-05-05 00:15 | 18.44560 | -98.92168 | 37284 ft | 446 kts | 143° |
| 2026-05-05 00:16 | 18.39970 | -98.87734 | 37251 ft | 449 kts | 132° |
| 2026-05-05 00:16 | 18.36178 | -98.82502 | 37246 ft | 450 kts | 125° |
| 2026-05-05 00:17 | 18.32660 | -98.77058 | 37252 ft | 450 kts | 125° |
| 2026-05-05 00:17 | 18.29116 | -98.71603 | 37244 ft | 451 kts | 125° |
| 2026-05-05 00:18 | 18.25566 | -98.66174 | 37227 ft | 452 kts | 125° |
| 2026-05-05 00:18 | 18.23181 | -98.62534 | 37227 ft | 452 kts | 125° |
| 2026-05-05 00:19 | 18.20762 | -98.58842 | 37224 ft | 452 kts | 125° |
| 2026-05-05 00:19 | 18.17202 | -98.53410 | 37229 ft | 453 kts | 125° |
| 2026-05-05 00:20 | 18.13625 | -98.47944 | 37211 ft | 454 kts | 124° |
| 2026-05-05 00:20 | 18.10087 | -98.42413 | 37193 ft | 458 kts | 124° |
| 2026-05-05 00:21 | 18.06510 | -98.36804 | 37168 ft | 462 kts | 124° |
| 2026-05-05 00:21 | 18.02938 | -98.31210 | 37162 ft | 463 kts | 124° |
| 2026-05-05 00:22 | 17.99350 | -98.25599 | 37165 ft | 463 kts | 124° |
| 2026-05-05 00:22 | 17.95755 | -98.19984 | 37172 ft | 463 kts | 124° |
| 2026-05-05 00:23 | 17.92151 | -98.14358 | 37197 ft | 463 kts | 124° |
| 2026-05-05 00:23 | 17.88553 | -98.08747 | 37215 ft | 463 kts | 124° |
| 2026-05-05 00:24 | 17.84957 | -98.03143 | 37235 ft | 464 kts | 124° |
| 2026-05-05 00:24 | 17.81345 | -97.97517 | 37244 ft | 464 kts | 124° |
| 2026-05-05 00:25 | 17.77744 | -97.91911 | 37250 ft | 464 kts | 124° |
| 2026-05-05 00:25 | 17.74159 | -97.86332 | 37255 ft | 464 kts | 124° |
| 2026-05-05 00:26 | 17.70529 | -97.80692 | 37271 ft | 464 kts | 124° |
| 2026-05-05 00:26 | 17.66791 | -97.75223 | 37291 ft | 463 kts | 127° |
| 2026-05-05 00:26 | 17.64865 | -97.72501 | 37141 ft | 464 kts | 127° |
| 2026-05-05 00:27 | 17.63194 | -97.70139 | 36885 ft | 461 kts | 127° |
| 2026-05-05 00:27 | 17.61320 | -97.67487 | 36599 ft | 457 kts | 127° |
| 2026-05-05 00:27 | 17.59440 | -97.64823 | 36310 ft | 453 kts | 127° |
| 2026-05-05 00:27 | 17.57570 | -97.62174 | 36023 ft | 451 kts | 127° |
| 2026-05-05 00:28 | 17.55694 | -97.59514 | 35734 ft | 450 kts | 127° |
| 2026-05-05 00:28 | 17.53845 | -97.56892 | 35449 ft | 449 kts | 127° |
| 2026-05-05 00:28 | 17.51991 | -97.54263 | 35111 ft | 450 kts | 126° |
| 2026-05-05 00:28 | 17.50119 | -97.51611 | 34656 ft | 451 kts | 126° |
| 2026-05-05 00:29 | 17.48250 | -97.48963 | 34105 ft | 451 kts | 126° |
| 2026-05-05 00:29 | 17.46392 | -97.46336 | 33497 ft | 451 kts | 126° |
| 2026-05-05 00:29 | 17.44565 | -97.43697 | 32890 ft | 450 kts | 124° |
| 2026-05-05 00:29 | 17.42769 | -97.40984 | 32285 ft | 451 kts | 123° |
| 2026-05-05 00:30 | 17.41007 | -97.38306 | 31654 ft | 451 kts | 123° |
| 2026-05-05 00:30 | 17.39229 | -97.35598 | 30998 ft | 451 kts | 122° |
| 2026-05-05 00:30 | 17.37438 | -97.32869 | 30320 ft | 451 kts | 122° |
| 2026-05-05 00:30 | 17.35661 | -97.30159 | 29642 ft | 451 kts | 121° |
| 2026-05-05 00:31 | 17.33890 | -97.27461 | 28954 ft | 450 kts | 121° |
| 2026-05-05 00:31 | 17.32132 | -97.24783 | 28270 ft | 450 kts | 121° |
| 2026-05-05 00:31 | 17.30375 | -97.22096 | 27587 ft | 450 kts | 121° |
| 2026-05-05 00:31 | 17.28606 | -97.19398 | 27100 ft | 445 kts | 121° |
| 2026-05-05 00:32 | 17.26869 | -97.16749 | 26620 ft | 440 kts | 121° |
| 2026-05-05 00:32 | 17.25153 | -97.14132 | 26134 ft | 436 kts | 121° |
| 2026-05-05 00:32 | 17.23444 | -97.11533 | 25635 ft | 432 kts | 121° |
| 2026-05-05 00:32 | 17.21738 | -97.08939 | 25137 ft | 428 kts | 121° |
| 2026-05-05 00:33 | 17.20038 | -97.06406 | 24654 ft | 425 kts | 122° |
| 2026-05-05 00:33 | 17.18313 | -97.03900 | 24178 ft | 421 kts | 122° |
| 2026-05-05 00:33 | 17.16623 | -97.01449 | 23705 ft | 417 kts | 122° |
| 2026-05-05 00:33 | 17.14931 | -96.98992 | 23230 ft | 414 kts | 122° |
| 2026-05-05 00:34 | 17.13268 | -96.96574 | 22746 ft | 411 kts | 122° |
| 2026-05-05 00:34 | 17.11603 | -96.94148 | 22261 ft | 408 kts | 122° |
| 2026-05-05 00:34 | 17.09958 | -96.91749 | 21765 ft | 406 kts | 122° |
| 2026-05-05 00:34 | 17.08335 | -96.89380 | 21266 ft | 403 kts | 122° |
| 2026-05-05 00:35 | 17.06692 | -96.86983 | 20750 ft | 402 kts | 122° |
| 2026-05-05 00:35 | 17.05077 | -96.84616 | 20247 ft | 399 kts | 122° |
| 2026-05-05 00:35 | 17.03486 | -96.82278 | 19882 ft | 391 kts | 122° |
| 2026-05-05 00:35 | 17.01922 | -96.79986 | 19528 ft | 385 kts | 122° |
| 2026-05-05 00:36 | 17.00377 | -96.77729 | 19180 ft | 378 kts | 123° |
| 2026-05-05 00:36 | 16.98864 | -96.75519 | 18851 ft | 371 kts | 123° |
| 2026-05-05 00:36 | 16.97379 | -96.73356 | 18540 ft | 364 kts | 123° |
| 2026-05-05 00:36 | 16.95739 | -96.71374 | 18228 ft | 360 kts | 140° |
| 2026-05-05 00:37 | 16.93498 | -96.70243 | 17922 ft | 360 kts | 166° |
| 2026-05-05 00:37 | 16.91011 | -96.70253 | 17630 ft | 358 kts | 193° |
| 2026-05-05 00:37 | 16.88789 | -96.71410 | 17339 ft | 353 kts | 221° |
| 2026-05-05 00:37 | 16.87279 | -96.73367 | 17049 ft | 345 kts | 245° |
| 2026-05-05 00:38 | 16.86588 | -96.75693 | 16770 ft | 335 kts | 267° |
| 2026-05-05 00:38 | 16.86748 | -96.78061 | 16508 ft | 324 kts | 288° |
| 2026-05-05 00:38 | 16.87676 | -96.80136 | 16245 ft | 312 kts | 310° |
| 2026-05-05 00:38 | 16.89088 | -96.81806 | 16004 ft | 304 kts | 316° |
| 2026-05-05 00:39 | 16.90549 | -96.83383 | 15751 ft | 299 kts | 320° |
| 2026-05-05 00:39 | 16.92242 | -96.84581 | 15491 ft | 288 kts | 340° |
| 2026-05-05 00:39 | 16.94158 | -96.85072 | 15215 ft | 279 kts | 358° |
| 2026-05-05 00:39 | 16.96075 | -96.85175 | 14943 ft | 273 kts | 360° |
| 2026-05-05 00:40 | 16.97956 | -96.85251 | 14697 ft | 269 kts | 359° |
| 2026-05-05 00:40 | 16.99817 | -96.85337 | 14447 ft | 265 kts | 359° |
| 2026-05-05 00:40 | 17.01655 | -96.85431 | 14188 ft | 261 kts | 359° |
| 2026-05-05 00:40 | 17.03462 | -96.85526 | 13881 ft | 259 kts | 359° |
| 2026-05-05 00:41 | 17.05268 | -96.85613 | 13567 ft | 258 kts | 3° |
| 2026-05-05 00:41 | 17.07012 | -96.85250 | 13280 ft | 253 kts | 24° |
| 2026-05-05 00:41 | 17.08504 | -96.84297 | 12958 ft | 252 kts | 41° |
| 2026-05-05 00:41 | 17.09659 | -96.82918 | 12605 ft | 253 kts | 57° |
| 2026-05-05 00:42 | 17.10368 | -96.81253 | 12324 ft | 251 kts | 74° |
| 2026-05-05 00:42 | 17.10573 | -96.79433 | 12237 ft | 256 kts | 91° |
| 2026-05-05 00:42 | 17.10239 | -96.77591 | 12189 ft | 260 kts | 108° |
| 2026-05-05 00:42 | 17.09371 | -96.75916 | 12159 ft | 264 kts | 125° |
| 2026-05-05 00:43 | 17.08028 | -96.74587 | 12182 ft | 269 kts | 144° |
| 2026-05-05 00:43 | 17.06335 | -96.73759 | 12172 ft | 274 kts | 163° |
| 2026-05-05 00:43 | 17.04438 | -96.73479 | 12164 ft | 274 kts | 174° |
| 2026-05-05 00:43 | 17.02571 | -96.73389 | 12134 ft | 260 kts | 176° |
| 2026-05-05 00:44 | 17.00784 | -96.73322 | 12116 ft | 253 kts | 175° |
| 2026-05-05 00:44 | 16.99006 | -96.73244 | 12112 ft | 254 kts | 175° |
| 2026-05-05 00:44 | 16.97253 | -96.73157 | 12112 ft | 253 kts | 174° |
| 2026-05-05 00:44 | 16.95487 | -96.73016 | 11991 ft | 252 kts | 171° |
| 2026-05-05 00:45 | 16.93741 | -96.72775 | 11725 ft | 249 kts | 167° |
| 2026-05-05 00:45 | 16.92051 | -96.72437 | 11443 ft | 248 kts | 164° |
| 2026-05-05 00:45 | 16.90404 | -96.72005 | 11301 ft | 236 kts | 161° |
| 2026-05-05 00:45 | 16.88879 | -96.71519 | 11097 ft | 222 kts | 158° |
| 2026-05-05 00:46 | 16.87442 | -96.70976 | 10737 ft | 213 kts | 155° |
| 2026-05-05 00:46 | 16.86089 | -96.70436 | 10383 ft | 208 kts | 156° |
| 2026-05-05 00:46 | 16.84717 | -96.69955 | 10032 ft | 203 kts | 160° |
| 2026-05-05 00:46 | 16.83378 | -96.69556 | 9684 ft | 200 kts | 162° |
| 2026-05-05 00:47 | 16.82010 | -96.69342 | 9345 ft | 196 kts | 181° |
| 2026-05-05 00:47 | 16.80737 | -96.69656 | 9245 ft | 186 kts | 201° |
| 2026-05-05 00:47 | 16.79630 | -96.70382 | 9199 ft | 187 kts | 221° |
| 2026-05-05 00:47 | 16.78794 | -96.71487 | 9177 ft | 203 kts | 242° |
| 2026-05-05 00:48 | 16.78359 | -96.72901 | 9117 ft | 208 kts | 264° |
| 2026-05-05 00:48 | 16.78448 | -96.74393 | 9052 ft | 207 kts | 286° |
| 2026-05-05 00:48 | 16.79035 | -96.75736 | 8963 ft | 199 kts | 307° |
| 2026-05-05 00:48 | 16.79971 | -96.76720 | 8822 ft | 181 kts | 328° |
| 2026-05-05 00:49 | 16.81072 | -96.77288 | 8729 ft | 177 kts | 346° |
| 2026-05-05 00:49 | 16.82299 | -96.77468 | 8617 ft | 175 kts | 4° |
| 2026-05-05 00:49 | 16.83503 | -96.77301 | 8518 ft | 174 kts | 16° |
| 2026-05-05 00:49 | 16.84683 | -96.76960 | 8385 ft | 175 kts | 19° |
| 2026-05-05 00:50 | 16.85847 | -96.76583 | 8090 ft | 175 kts | 19° |
| 2026-05-05 00:50 | 16.87004 | -96.76211 | 7837 ft | 175 kts | 19° |
| 2026-05-05 00:50 | 16.88195 | -96.75839 | 7533 ft | 176 kts | 18° |
| 2026-05-05 00:50 | 16.89363 | -96.75483 | 7231 ft | 177 kts | 18° |
| 2026-05-05 00:51 | 16.90557 | -96.75123 | 6968 ft | 175 kts | 17° |
| 2026-05-05 00:51 | 16.91694 | -96.74784 | 6694 ft | 165 kts | 17° |
| 2026-05-05 00:51 | 16.92791 | -96.74457 | 6444 ft | 164 kts | 17° |
| 2026-05-05 00:51 | 16.93902 | -96.74126 | 6201 ft | 165 kts | 17° |
| 2026-05-05 00:52 | 16.95012 | -96.73795 | 5957 ft | 165 kts | 17° |
| 2026-05-05 00:52 | 16.95706 | -96.73605 | 5791 ft | 166 kts | 11° |
| 2026-05-05 00:52 | 16.96850 | -96.73443 | 5457 ft | 164 kts | 8° |
| 2026-05-05 00:52 | 16.97952 | -96.73173 | 5204 ft | 163 kts | 19° |
| 2026-05-05 00:53 | 16.99049 | -96.72842 | 5003 ft | 159 kts | 17° |
| 2026-05-05 00:53 | 16.99848 | -96.72607 | 5012 ft | 75 kts | 17° |
| 2026-05-05 00:53 | 17.00084 | -96.72540 | 5014 ft | 6 kts | 15° |
| 2026-05-05 00:53 | 17.00149 | -96.72521 | 5015 ft | 13 kts | 15° |
| 2026-05-05 00:54 | 17.00253 | -96.72490 | 5017 ft | 15 kts | 17° |
| 2026-05-05 00:54 | 17.00308 | -96.72417 | 5018 ft | 13 kts | 94° |
| 2026-05-05 00:54 | 17.00285 | -96.72332 | 5018 ft | 10 kts | 107° |
| 2026-05-05 00:54 | 17.00240 | -96.72288 | 5018 ft | 7 kts | 181° |
| 2026-05-05 00:55 | 17.00190 | -96.72294 | 5017 ft | 7 kts | 194° |
| 2026-05-05 00:55 | 17.00135 | -96.72311 | 5017 ft | 8 kts | 193° |
| 2026-05-05 00:55 | 17.00073 | -96.72317 | 5016 ft | 6 kts | 165° |
| 2026-05-05 00:55 | 17.00059 | -96.72277 | 5016 ft | 4 kts | 83° |
| 2026-05-05 00:56 | 17.00062 | -96.72253 | 5016 ft | 0 kts | 81° |